Time;durP1;ratioP1;P1;durP2;ratioP2;P2;SDS_P1;SDS_P2;PMS_P1;PMS_P2;Temp;Humidity;BMP_temperature;BMP_pressure;BME280_temperature;BME280_humidity;BME280_pressure;Samples;Min_cycle;Max_cycle;Signal;HPM_P1;HPM_P2
2023/08/26 00:00:42;;;;;;;0.80;0.80;;;18.70;99.90;;;;;;5120545;27;20407;-83
2023/08/26 00:03:08;;;;;;;0.80;0.80;;;18.70;99.90;;;;;;5121083;27;20479;-83
2023/08/26 00:05:34;;;;;;;0.80;0.80;;;18.30;99.90;;;;;;5123363;27;20058;-83
2023/08/26 00:08:00;;;;;;;0.90;0.90;;;18.60;99.90;;;;;;5124637;27;20085;-84
2023/08/26 00:10:25;;;;;;;0.70;0.70;;;18.60;99.90;;;;;;5116385;27;20074;-83
2023/08/26 00:12:51;;;;;;;0.80;0.80;;;18.70;99.90;;;;;;5121927;27;20043;-84
2023/08/26 00:15:17;;;;;;;0.70;0.70;;;18.30;99.90;;;;;;5120862;27;20078;-84
2023/08/26 00:17:43;;;;;;;0.70;0.70;;;18.30;99.90;;;;;;5107279;27;20544;-84
2023/08/26 00:20:09;;;;;;;0.80;0.80;;;18.30;99.90;;;;;;5121678;27;20058;-84
2023/08/26 00:22:38;;;;;;;0.70;0.70;;;18.50;99.90;;;;;;5142247;27;20434;-84
2023/08/26 00:25:06;;;;;;;0.70;0.70;;;18.50;99.90;;;;;;5115924;27;20500;-84
2023/08/26 00:27:31;;;;;;;0.70;0.70;;;18.50;99.90;;;;;;5137108;27;20478;-86
2023/08/26 00:29:57;;;;;;;0.70;0.70;;;18.50;99.90;;;;;;5121475;27;20254;-85
2023/08/26 00:32:23;;;;;;;0.70;0.70;;;18.40;99.90;;;;;;5120143;27;20047;-85
2023/08/26 00:34:48;;;;;;;0.63;0.63;;;18.20;99.90;;;;;;5103235;27;20030;-86
2023/08/26 00:37:14;;;;;;;0.70;0.70;;;18.30;99.90;;;;;;5120251;27;20077;-85
2023/08/26 00:39:40;;;;;;;0.70;0.70;;;18.10;99.90;;;;;;5121444;27;20412;-84
2023/08/26 00:42:05;;;;;;;0.60;0.60;;;18.40;99.90;;;;;;5101372;27;20047;-84
2023/08/26 00:44:31;;;;;;;0.68;0.68;;;17.90;99.90;;;;;;5120785;27;20411;-85
2023/08/26 00:46:59;;;;;;;0.70;0.70;;;17.90;99.90;;;;;;5119871;27;20502;-85
2023/08/26 00:49:25;;;;;;;0.60;0.60;;;18.00;99.90;;;;;;5120864;27;20840;-84
2023/08/26 00:51:51;;;;;;;0.70;0.70;;;17.90;99.90;;;;;;5119312;27;20046;-83
2023/08/26 00:54:17;;;;;;;0.70;0.70;;;18.00;99.90;;;;;;5119449;27;20129;-85
2023/08/26 00:56:43;;;;;;;0.70;0.70;;;18.00;99.90;;;;;;5100033;27;20150;-84
2023/08/26 00:59:10;;;;;;;0.70;0.70;;;18.00;99.90;;;;;;5138889;27;20042;-84
2023/08/26 01:01:37;;;;;;;0.70;0.70;;;18.00;99.90;;;;;;5120540;27;20107;-85
2023/08/26 01:04:03;;;;;;;0.70;0.70;;;18.00;99.90;;;;;;5104382;27;20049;-84
2023/08/26 01:06:29;;;;;;;0.70;0.70;;;17.80;99.90;;;;;;5122931;27;20415;-85
2023/08/26 01:08:55;;;;;;;0.68;0.68;;;18.00;99.90;;;;;;5119381;27;20050;-84
2023/08/26 01:11:30;;;;;;;0.68;0.68;;;17.70;99.90;;;;;;5138026;27;20395;-84
2023/08/26 01:14:14;;;;;;;0.60;0.60;;;18.00;99.90;;;;;;5118774;27;20054;-84
2023/08/26 01:16:40;;;;;;;0.60;0.60;;;18.00;99.90;;;;;;5123635;27;20051;-84
2023/08/26 01:19:30;;;;;;;0.70;0.70;;;17.60;99.90;;;;;;5118102;27;20054;-84
2023/08/26 01:22:01;;;;;;;0.70;0.70;;;17.70;99.90;;;;;;5110945;27;20146;-84
2023/08/26 01:24:27;;;;;;;0.60;0.60;;;17.80;99.90;;;;;;5115501;27;20100;-85
2023/08/26 01:26:53;;;;;;;0.60;0.60;;;17.30;99.90;;;;;;5126387;27;20035;-84
2023/08/26 01:29:19;;;;;;;0.60;0.60;;;17.40;99.90;;;;;;5122433;27;20688;-84
2023/08/26 01:31:50;;;;;;;0.60;0.60;;;17.40;99.90;;;;;;5122460;27;20492;-84
2023/08/26 01:34:21;;;;;;;0.60;0.60;;;17.70;99.90;;;;;;5089613;27;20506;-84
2023/08/26 01:36:50;;;;;;;0.60;0.60;;;17.50;99.90;;;;;;5131985;27;20042;-84
2023/08/26 01:39:17;;;;;;;0.60;0.60;;;17.20;99.90;;;;;;5119727;27;20051;-86
2023/08/26 01:41:48;;;;;;;0.63;0.63;;;17.50;99.90;;;;;;5119186;27;20045;-85
2023/08/26 01:44:15;;;;;;;0.60;0.60;;;17.20;99.90;;;;;;5122448;27;20066;-83
2023/08/26 01:46:41;;;;;;;0.60;0.60;;;17.30;99.90;;;;;;5119876;27;20436;-83
2023/08/26 01:49:07;;;;;;;0.70;0.70;;;17.00;99.90;;;;;;5121718;27;20061;-83
2023/08/26 01:51:33;;;;;;;0.65;0.65;;;17.20;99.90;;;;;;5121042;27;20109;-85
2023/08/26 01:53:59;;;;;;;0.70;0.70;;;17.20;99.90;;;;;;5119701;27;20186;-83
2023/08/26 01:56:25;;;;;;;0.70;0.70;;;17.00;99.90;;;;;;5119815;27;20122;-84
2023/08/26 01:58:51;;;;;;;0.70;0.70;;;16.90;99.90;;;;;;5138895;27;20058;-84
2023/08/26 02:01:17;;;;;;;0.70;0.70;;;16.80;99.90;;;;;;5120734;27;20043;-84
2023/08/26 02:03:42;;;;;;;0.70;0.70;;;17.00;99.90;;;;;;5106230;27;20049;-85
2023/08/26 02:06:08;;;;;;;0.70;0.70;;;17.00;99.90;;;;;;5121725;27;20439;-84
2023/08/26 02:08:34;;;;;;;0.70;0.70;;;16.90;99.90;;;;;;5106143;27;20126;-85
2023/08/26 02:10:59;;;;;;;0.70;0.70;;;16.60;99.90;;;;;;5125095;27;20118;-84
2023/08/26 02:13:25;;;;;;;0.70;0.70;;;16.70;99.90;;;;;;5121410;27;20050;-84
2023/08/26 02:15:51;;;;;;;0.70;0.70;;;16.80;99.90;;;;;;5120919;27;20879;-85
2023/08/26 02:18:18;;;;;;;0.70;0.70;;;16.80;99.90;;;;;;5119264;27;20399;-84
2023/08/26 02:20:44;;;;;;;0.70;0.70;;;17.00;99.90;;;;;;5120400;27;20047;-84
2023/08/26 02:23:10;;;;;;;0.70;0.70;;;16.90;99.90;;;;;;5117110;27;20062;-84
2023/08/26 02:25:36;;;;;;;0.70;0.70;;;16.70;99.90;;;;;;5105892;27;20046;-83
2023/08/26 02:28:02;;;;;;;0.70;0.70;;;16.90;99.90;;;;;;5120944;27;20043;-83
2023/08/26 02:30:29;;;;;;;0.70;0.70;;;16.60;99.90;;;;;;5116098;27;20046;-84
2023/08/26 02:32:55;;;;;;;0.70;0.70;;;16.60;99.90;;;;;;5123623;27;20480;-83
2023/08/26 02:35:20;;;;;;;0.70;0.70;;;16.80;99.90;;;;;;5120582;27;20090;-83
2023/08/26 02:37:46;;;;;;;0.70;0.70;;;16.90;99.90;;;;;;5123022;27;20042;-83
2023/08/26 02:40:11;;;;;;;0.75;0.75;;;16.60;99.90;;;;;;5122491;27;20079;-83
2023/08/26 02:42:37;;;;;;;0.75;0.75;;;16.60;99.90;;;;;;5122214;27;20077;-83
2023/08/26 02:45:04;;;;;;;0.70;0.70;;;16.60;99.90;;;;;;5138877;27;20043;-83
2023/08/26 02:47:30;;;;;;;0.70;0.70;;;16.90;99.90;;;;;;5122571;27;20050;-83
2023/08/26 02:49:56;;;;;;;0.73;0.73;;;16.70;99.90;;;;;;5135272;27;20058;-83
2023/08/26 02:52:22;;;;;;;0.70;0.70;;;16.60;99.90;;;;;;5121684;27;20597;-84
2023/08/26 02:54:47;;;;;;;0.70;0.70;;;16.50;99.90;;;;;;5121110;27;20138;-83
2023/08/26 02:57:13;;;;;;;0.80;0.80;;;16.60;99.90;;;;;;5113449;27;20171;-85
2023/08/26 02:59:39;;;;;;;0.73;0.73;;;16.70;99.90;;;;;;5122758;27;20049;-84
2023/08/26 03:02:06;;;;;;;0.70;0.70;;;16.70;99.90;;;;;;5119922;27;20039;-84
2023/08/26 03:04:32;;;;;;;0.80;0.80;;;16.80;99.90;;;;;;5103545;27;20129;-84
2023/08/26 03:06:58;;;;;;;0.70;0.70;;;16.80;99.90;;;;;;5098025;27;20067;-85
2023/08/26 03:09:25;;;;;;;0.80;0.80;;;16.80;99.90;;;;;;5130852;27;20058;-84
2023/08/26 03:11:51;;;;;;;0.80;0.80;;;16.80;99.90;;;;;;5119490;27;20488;-84
2023/08/26 03:14:17;;;;;;;0.75;0.75;;;16.50;99.90;;;;;;5116488;27;20503;-84
2023/08/26 03:16:43;;;;;;;0.80;0.80;;;16.60;99.90;;;;;;5103423;27;20106;-84
2023/08/26 03:19:08;;;;;;;0.80;0.80;;;16.70;99.90;;;;;;5121889;27;20525;-84
2023/08/26 03:21:34;;;;;;;0.85;0.85;;;16.30;99.90;;;;;;5122586;27;20047;-84
2023/08/26 03:24:00;;;;;;;0.90;0.90;;;16.50;99.90;;;;;;5132697;27;21245;-84
2023/08/26 03:26:25;;;;;;;0.90;0.90;;;16.70;99.90;;;;;;5124868;27;20178;-84
2023/08/26 03:28:51;;;;;;;1.00;1.00;;;16.30;99.90;;;;;;5119173;27;20492;-84
2023/08/26 03:31:17;;;;;;;1.00;1.00;;;16.30;99.90;;;;;;5121480;27;20038;-84
2023/08/26 03:33:43;;;;;;;1.00;1.00;;;16.60;99.90;;;;;;5120759;27;20043;-84
2023/08/26 03:36:08;;;;;;;1.00;1.00;;;16.50;99.90;;;;;;5122082;27;20042;-84
2023/08/26 03:38:35;;;;;;;1.08;1.08;;;16.60;99.90;;;;;;5121624;27;20034;-84
2023/08/26 03:41:04;;;;;;;1.10;1.10;;;16.50;99.90;;;;;;5106352;27;20051;-84
2023/08/26 03:43:30;;;;;;;1.10;1.10;;;16.40;99.90;;;;;;5119660;27;20047;-84
2023/08/26 03:45:56;;;;;;;1.13;1.13;;;16.40;99.90;;;;;;5125106;27;20062;-84
2023/08/26 03:48:21;;;;;;;1.20;1.20;;;16.10;99.90;;;;;;5124534;27;20047;-83
2023/08/26 03:50:55;;;;;;;1.05;1.05;;;16.20;99.90;;;;;;5106702;27;20242;-84
2023/08/26 03:53:21;;;;;;;1.20;1.20;;;16.30;99.90;;;;;;5123053;27;20129;-85
2023/08/26 03:55:46;;;;;;;1.13;1.13;;;16.10;99.90;;;;;;5112286;27;20129;-84
2023/08/26 03:58:13;;;;;;;1.10;1.10;;;16.10;99.90;;;;;;5125956;27;20115;-85
2023/08/26 04:00:39;;;;;;;1.00;1.00;;;16.40;99.90;;;;;;5120074;27;20046;-84
2023/08/26 04:03:08;;;;;;;1.10;1.10;;;16.00;99.90;;;;;;5123240;27;20053;-84
2023/08/26 04:05:34;;;;;;;1.23;1.23;;;16.20;99.90;;;;;;5125881;27;20046;-85
2023/08/26 04:08:00;;;;;;;1.10;1.10;;;16.40;99.90;;;;;;5108466;27;20078;-85
2023/08/26 04:10:26;;;;;;;1.10;1.10;;;16.00;99.90;;;;;;5116963;27;20122;-85
2023/08/26 04:12:51;;;;;;;1.10;1.10;;;16.50;99.90;;;;;;5123883;27;20102;-84
2023/08/26 04:15:17;;;;;;;1.10;1.10;;;16.60;99.90;;;;;;5127429;27;20050;-85
2023/08/26 04:17:43;;;;;;;1.10;1.10;;;16.50;99.90;;;;;;5120397;27;20051;-83
2023/08/26 04:20:11;;;;;;;1.10;1.10;;;16.10;99.90;;;;;;5127008;27;20526;-84
2023/08/26 04:22:37;;;;;;;1.10;1.10;;;16.60;99.90;;;;;;5125139;27;20054;-83
2023/08/26 04:25:05;;;;;;;1.10;1.10;;;16.30;99.90;;;;;;5123036;27;20050;-84
2023/08/26 04:27:33;;;;;;;1.10;1.10;;;16.10;99.90;;;;;;5108529;27;20101;-85
2023/08/26 04:29:59;;;;;;;1.20;1.20;;;16.60;99.90;;;;;;5121588;27;20408;-84
2023/08/26 04:32:25;;;;;;;1.10;1.10;;;16.50;99.90;;;;;;5124270;27;20039;-84
2023/08/26 04:34:51;;;;;;;1.00;1.00;;;16.50;99.90;;;;;;5123576;27;20041;-84
2023/08/26 04:37:20;;;;;;;1.00;1.00;;;16.40;99.90;;;;;;5121130;27;20133;-85
2023/08/26 04:39:46;;;;;;;1.20;1.20;;;16.30;99.90;;;;;;5120242;27;20078;-86
2023/08/26 04:42:12;;;;;;;1.20;1.20;;;16.30;99.90;;;;;;5104606;27;20055;-85
2023/08/26 04:44:38;;;;;;;1.17;1.17;;;16.40;99.90;;;;;;5123362;27;20761;-84
2023/08/26 04:47:04;;;;;;;1.10;1.10;;;16.50;99.90;;;;;;5123732;27;20121;-83
2023/08/26 04:49:31;;;;;;;1.20;1.20;;;16.70;99.90;;;;;;5102676;27;20043;-84
2023/08/26 04:51:57;;;;;;;1.20;1.20;;;16.20;99.90;;;;;;5117775;27;20407;-86
2023/08/26 04:54:23;;;;;;;1.20;1.20;;;16.40;99.90;;;;;;5119928;27;20030;-86
2023/08/26 04:56:48;;;;;;;1.20;1.20;;;16.70;99.90;;;;;;5123565;27;20056;-86
2023/08/26 04:59:14;;;;;;;1.30;1.30;;;16.30;99.90;;;;;;5137029;27;20080;-87
2023/08/26 05:01:40;;;;;;;1.60;1.50;;;16.40;99.90;;;;;;5103476;27;20141;-84
2023/08/26 05:04:06;;;;;;;1.50;1.40;;;16.50;99.90;;;;;;5124012;27;20054;-86
2023/08/26 05:06:31;;;;;;;1.30;1.30;;;16.50;99.90;;;;;;5121790;27;20043;-85
2023/08/26 05:08:57;;;;;;;1.30;1.30;;;16.60;99.90;;;;;;5100365;27;20034;-86
2023/08/26 05:11:23;;;;;;;1.30;1.30;;;16.40;99.90;;;;;;5125502;27;20054;-86
2023/08/26 05:13:48;;;;;;;1.10;1.10;;;16.30;99.90;;;;;;5101230;27;20030;-87
2023/08/26 05:16:14;;;;;;;1.20;1.20;;;16.50;99.90;;;;;;5127471;27;20092;-87
2023/08/26 05:18:40;;;;;;;1.25;1.25;;;16.90;99.90;;;;;;5120633;27;20050;-87
2023/08/26 05:21:05;;;;;;;1.20;1.20;;;16.30;99.90;;;;;;5138441;27;20047;-87
2023/08/26 05:23:32;;;;;;;1.30;1.30;;;16.40;99.90;;;;;;5105437;27;20043;-85
2023/08/26 05:25:57;;;;;;;1.20;1.20;;;16.80;99.90;;;;;;5119543;27;20106;-87
2023/08/26 05:28:23;;;;;;;1.23;1.23;;;16.80;99.90;;;;;;5122541;27;20134;-89
2023/08/26 05:30:49;;;;;;;1.20;1.20;;;16.40;99.90;;;;;;5116719;27;20039;-87
2023/08/26 05:33:15;;;;;;;1.20;1.20;;;16.50;99.90;;;;;;5122744;27;20047;-86
2023/08/26 05:35:40;;;;;;;1.20;1.20;;;16.30;99.90;;;;;;5120597;27;20126;-88
2023/08/26 05:38:06;;;;;;;1.10;1.10;;;16.40;99.90;;;;;;5107136;27;20049;-86
2023/08/26 05:40:32;;;;;;;1.30;1.30;;;16.60;99.90;;;;;;5121510;27;20050;-88
2023/08/26 05:42:58;;;;;;;1.50;1.40;;;16.50;99.90;;;;;;5122846;27;20121;-91
2023/08/26 05:45:25;;;;;;;1.20;1.20;;;16.70;99.90;;;;;;5127404;27;20081;-92
2023/08/26 05:47:51;;;;;;;1.42;1.38;;;16.40;99.90;;;;;;5105204;27;20043;-87
2023/08/26 05:50:17;;;;;;;1.30;1.30;;;16.90;99.90;;;;;;5105796;27;20480;-87
2023/08/26 05:52:43;;;;;;;1.50;1.40;;;16.60;99.90;;;;;;5106488;27;20047;-87
2023/08/26 05:55:10;;;;;;;1.50;1.40;;;16.90;99.90;;;;;;5124049;27;20050;-87
2023/08/26 05:57:36;;;;;;;1.30;1.30;;;16.90;99.90;;;;;;5138969;27;20031;-86
2023/08/26 06:00:02;;;;;;;1.55;1.45;;;16.80;99.90;;;;;;5119057;27;20069;-87
2023/08/26 06:02:29;;;;;;;1.60;1.50;;;16.40;99.90;;;;;;5118952;27;20050;-85
2023/08/26 06:04:54;;;;;;;1.60;1.50;;;16.80;99.90;;;;;;5117637;27;21626;-85
2023/08/26 06:07:20;;;;;;;1.67;1.58;;;16.90;99.90;;;;;;5128479;27;20161;-86
2023/08/26 06:09:46;;;;;;;1.15;1.15;;;16.60;99.90;;;;;;5123166;27;20414;-85
2023/08/26 06:12:11;;;;;;;1.05;1.05;;;16.90;99.90;;;;;;5104869;27;20122;-84
2023/08/26 06:14:37;;;;;;;1.08;1.08;;;16.80;99.90;;;;;;5123809;27;20047;-86
2023/08/26 06:17:04;;;;;;;1.15;1.15;;;16.50;99.90;;;;;;5120095;27;20092;-85
2023/08/26 06:19:29;;;;;;;1.00;1.00;;;16.90;99.90;;;;;;5120151;27;20047;-86
2023/08/26 06:21:55;;;;;;;1.10;1.10;;;16.30;99.90;;;;;;5121578;27;20035;-85
2023/08/26 06:24:21;;;;;;;1.02;1.02;;;16.70;99.90;;;;;;5118380;27;20058;-85
2023/08/26 06:26:49;;;;;;;1.00;1.00;;;16.90;99.90;;;;;;5104966;27;20038;-87
2023/08/26 06:29:15;;;;;;;1.00;1.00;;;16.50;99.90;;;;;;5138946;27;20046;-86
2023/08/26 06:31:42;;;;;;;1.13;1.13;;;16.60;99.90;;;;;;5135130;27;20126;-89
2023/08/26 06:34:07;;;;;;;1.00;1.00;;;16.70;99.90;;;;;;5121977;27;20848;-87
2023/08/26 06:36:33;;;;;;;1.55;1.45;;;16.40;99.90;;;;;;5123526;27;20103;-89
2023/08/26 06:38:59;;;;;;;1.20;1.20;;;16.80;99.90;;;;;;5120129;27;20133;-85
2023/08/26 06:41:25;;;;;;;1.20;1.20;;;16.80;99.90;;;;;;5119264;27;20047;-86
2023/08/26 06:43:50;;;;;;;1.20;1.20;;;16.70;99.90;;;;;;5122216;27;20047;-88
2023/08/26 06:46:16;;;;;;;1.20;1.20;;;16.80;99.90;;;;;;5122158;27;20134;-84
2023/08/26 06:48:42;;;;;;;1.20;1.20;;;16.60;99.90;;;;;;5138455;27;20042;-86
2023/08/26 06:51:08;;;;;;;1.50;1.40;;;16.60;99.90;;;;;;5121506;27;20047;-86
2023/08/26 06:53:33;;;;;;;1.30;1.30;;;16.40;99.90;;;;;;5118942;27;20038;-88
2023/08/26 06:55:59;;;;;;;1.42;1.40;;;16.60;99.90;;;;;;5124113;27;20047;-87
2023/08/26 06:58:30;;;;;;;1.60;1.50;;;16.60;99.90;;;;;;5122103;27;20698;-94
2023/08/26 07:00:55;;;;;;;1.70;1.60;;;16.40;99.90;;;;;;5109820;27;20091;-88
2023/08/26 07:03:25;;;;;;;1.70;1.60;;;16.60;99.90;;;;;;5110667;27;20404;-91
2023/08/26 07:05:51;;;;;;;1.65;1.55;;;16.40;99.90;;;;;;5118288;27;20050;-88
2023/08/26 07:08:18;;;;;;;1.63;1.52;;;16.30;99.90;;;;;;5104745;27;20042;-88
2023/08/26 07:10:47;;;;;;;1.88;1.77;;;16.30;99.90;;;;;;5121036;27;20046;-87
2023/08/26 07:13:13;;;;;;;1.85;1.75;;;16.60;99.90;;;;;;5109953;27;20126;-88
2023/08/26 07:15:39;;;;;;;1.67;1.58;;;16.40;99.90;;;;;;5127015;27;20514;-89
2023/08/26 07:18:05;;;;;;;1.70;1.60;;;16.40;99.90;;;;;;5108031;27;20039;-86
2023/08/26 07:20:31;;;;;;;1.88;1.77;;;16.60;99.90;;;;;;5117703;27;20110;-87
2023/08/26 07:22:57;;;;;;;1.70;1.60;;;16.50;99.90;;;;;;5131624;27;20491;-93
2023/08/26 07:25:26;;;;;;;1.75;1.65;;;16.50;99.90;;;;;;5106770;27;20046;-92
2023/08/26 07:27:52;;;;;;;1.70;1.60;;;16.60;99.90;;;;;;5108903;27;20053;-91
2023/08/26 07:30:18;;;;;;;1.75;1.65;;;16.50;99.90;;;;;;5123134;27;20047;-91
2023/08/26 07:32:43;;;;;;;1.65;1.55;;;16.50;99.90;;;;;;5106921;27;20432;-86
2023/08/26 07:35:10;;;;;;;1.75;1.65;;;16.50;99.90;;;;;;5124562;27;20039;-88
2023/08/26 07:37:36;;;;;;;1.60;1.50;;;16.60;99.90;;;;;;5126199;27;20046;-88
2023/08/26 07:40:05;;;;;;;1.30;1.30;;;16.50;99.90;;;;;;5124877;27;20487;-88
2023/08/26 07:42:35;;;;;;;1.30;1.30;;;16.50;99.90;;;;;;5108930;27;20099;-90
2023/08/26 07:45:01;;;;;;;1.30;1.30;;;16.50;99.90;;;;;;5138157;27;20042;-88
2023/08/26 07:47:30;;;;;;;1.35;1.33;;;16.70;99.90;;;;;;5110334;27;20050;-88
2023/08/26 07:49:55;;;;;;;1.63;1.52;;;16.70;99.90;;;;;;5123911;27;20039;-90
2023/08/26 07:52:21;;;;;;;1.52;1.42;;;16.60;99.90;;;;;;5126984;27;20122;-93
2023/08/26 07:54:47;;;;;;;1.42;1.38;;;16.50;99.90;;;;;;5123521;27;20035;-86
2023/08/26 07:57:13;;;;;;;1.13;1.13;;;16.50;99.90;;;;;;5122688;27;20106;-88
2023/08/26 07:59:38;;;;;;;1.13;1.13;;;16.60;99.90;;;;;;5123365;27;20077;-87
2023/08/26 08:02:04;;;;;;;1.08;1.08;;;16.60;99.90;;;;;;5116726;27;20046;-87
2023/08/26 08:04:30;;;;;;;1.05;1.05;;;16.70;99.90;;;;;;5102073;27;20043;-88
2023/08/26 08:06:55;;;;;;;1.20;1.20;;;16.90;99.90;;;;;;5101078;27;20042;-91
2023/08/26 08:09:21;;;;;;;1.10;1.10;;;16.80;99.90;;;;;;5118479;27;20045;-84
2023/08/26 08:11:47;;;;;;;1.30;1.30;;;17.00;99.90;;;;;;5118044;27;20054;-86
2023/08/26 08:14:13;;;;;;;1.20;1.20;;;17.00;99.90;;;;;;5122005;27;20594;-86
2023/08/26 08:16:38;;;;;;;1.20;1.20;;;17.20;99.90;;;;;;5121329;27;20073;-89
2023/08/26 08:19:04;;;;;;;1.00;1.00;;;17.30;99.90;;;;;;5105742;27;20166;-84
2023/08/26 08:21:30;;;;;;;1.10;1.10;;;17.20;99.90;;;;;;5143043;27;20043;-87
2023/08/26 08:23:55;;;;;;;1.00;1.00;;;17.20;99.90;;;;;;5124442;27;20065;-85
2023/08/26 08:26:21;;;;;;;0.90;0.90;;;17.30;99.90;;;;;;5121093;27;20915;-84
2023/08/26 08:28:47;;;;;;;0.80;0.80;;;17.30;99.90;;;;;;5125225;27;20043;-86
2023/08/26 08:31:12;;;;;;;0.80;0.80;;;17.80;99.90;;;;;;5119707;27;20043;-86
2023/08/26 08:33:38;;;;;;;0.80;0.80;;;17.60;99.90;;;;;;5106691;27;20055;-86
2023/08/26 08:36:04;;;;;;;0.80;0.80;;;17.80;99.90;;;;;;5125928;27;20047;-87
2023/08/26 08:38:30;;;;;;;0.70;0.70;;;18.00;99.90;;;;;;5124697;27;20050;-89
2023/08/26 08:40:55;;;;;;;0.70;0.70;;;18.10;99.90;;;;;;5123845;27;20397;-87
2023/08/26 08:43:23;;;;;;;0.60;0.60;;;18.40;99.90;;;;;;5104286;27;20145;-86
2023/08/26 08:45:51;;;;;;;0.70;0.70;;;18.50;99.90;;;;;;5120443;27;20061;-88
2023/08/26 08:48:18;;;;;;;0.60;0.60;;;18.90;99.90;;;;;;5108478;27;20051;-86
2023/08/26 08:50:43;;;;;;;0.60;0.60;;;18.80;99.90;;;;;;5124835;27;20070;-87
2023/08/26 08:53:12;;;;;;;0.60;0.60;;;19.00;99.90;;;;;;5123744;27;20073;-86
2023/08/26 08:55:38;;;;;;;0.70;0.70;;;19.30;99.90;;;;;;5102272;27;20763;-86
2023/08/26 08:58:04;;;;;;;0.70;0.70;;;19.30;99.90;;;;;;5122431;27;20068;-87
2023/08/26 09:00:30;;;;;;;0.70;0.70;;;19.30;99.90;;;;;;5121494;27;20050;-88
2023/08/26 09:02:58;;;;;;;0.63;0.63;;;19.10;99.90;;;;;;5105269;27;20053;-87
2023/08/26 09:05:24;;;;;;;0.60;0.60;;;19.20;99.90;;;;;;5125559;27;20706;-87
2023/08/26 09:07:51;;;;;;;0.70;0.70;;;19.30;99.90;;;;;;5121361;27;20047;-85
2023/08/26 09:10:18;;;;;;;0.80;0.80;;;19.80;99.90;;;;;;5122479;27;20062;-88
2023/08/26 09:12:44;;;;;;;0.70;0.70;;;19.80;99.90;;;;;;5123342;27;20452;-86
2023/08/26 09:15:10;;;;;;;0.70;0.70;;;20.00;99.90;;;;;;5106168;27;20045;-85
2023/08/26 09:17:35;;;;;;;0.70;0.70;;;19.80;99.90;;;;;;5120634;27;20122;-93
2023/08/26 09:20:02;;;;;;;0.80;0.80;;;19.60;99.90;;;;;;5101950;27;20047;-88
2023/08/26 09:22:30;;;;;;;0.80;0.80;;;19.50;99.90;;;;;;5121189;27;20138;-86
2023/08/26 09:24:58;;;;;;;0.80;0.80;;;19.40;99.90;;;;;;5107339;27;20055;-87
2023/08/26 09:27:23;;;;;;;0.80;0.80;;;20.00;99.90;;;;;;5124563;27;20733;-88
2023/08/26 09:29:51;;;;;;;0.70;0.70;;;20.10;99.90;;;;;;5114698;27;20130;-86
2023/08/26 09:32:34;;;;;;;0.80;0.80;;;20.40;99.90;;;;;;5121584;27;20062;-86
2023/08/26 09:35:13;;;;;;;0.70;0.70;;;20.70;99.90;;;;;;5121198;27;20117;-86
2023/08/26 09:37:41;;;;;;;0.70;0.70;;;20.30;99.90;;;;;;5106643;27;20296;-84
2023/08/26 09:40:11;;;;;;;0.70;0.70;;;20.80;99.90;;;;;;5124587;27;20038;-86
2023/08/26 09:42:39;;;;;;;0.80;0.80;;;20.30;99.90;;;;;;5132562;27;20049;-87
2023/08/26 09:45:10;;;;;;;0.75;0.75;;;20.00;99.90;;;;;;5119058;27;20598;-86
2023/08/26 09:47:37;;;;;;;0.80;0.80;;;20.20;99.90;;;;;;5104171;27;20389;-86
2023/08/26 09:50:03;;;;;;;0.70;0.70;;;20.00;99.90;;;;;;5104288;27;20046;-86
2023/08/26 09:52:29;;;;;;;0.80;0.80;;;19.90;99.90;;;;;;5120383;27;20043;-85
2023/08/26 09:54:56;;;;;;;0.77;0.77;;;19.80;99.90;;;;;;5107326;27;20177;-86
2023/08/26 09:57:22;;;;;;;0.80;0.80;;;19.50;99.90;;;;;;5122454;27;20051;-88
2023/08/26 09:59:48;;;;;;;0.80;0.80;;;20.10;99.90;;;;;;5120376;27;20046;-86
2023/08/26 10:02:24;;;;;;;0.75;0.75;;;20.50;99.90;;;;;;5124748;27;20140;-87
2023/08/26 10:04:56;;;;;;;0.70;0.70;;;20.40;99.90;;;;;;5115877;27;20062;-90
2023/08/26 10:07:27;;;;;;;0.63;0.63;;;20.80;99.90;;;;;;5119596;27;20134;-87
2023/08/26 10:09:57;;;;;;;0.60;0.60;;;20.90;99.90;;;;;;5123596;27;20043;-86
2023/08/26 10:12:33;;;;;;;0.50;0.50;;;21.20;99.90;;;;;;5121790;27;20149;-87
2023/08/26 10:15:02;;;;;;;0.52;0.52;;;21.70;99.90;;;;;;5121359;27;20046;-86
2023/08/26 10:17:31;;;;;;;0.60;0.60;;;21.70;99.90;;;;;;5121722;27;20046;-86
2023/08/26 10:19:57;;;;;;;0.60;0.60;;;21.90;99.90;;;;;;5120281;27;20494;-86
2023/08/26 10:22:24;;;;;;;0.60;0.60;;;21.80;99.90;;;;;;5124144;27;20428;-89
2023/08/26 10:24:50;;;;;;;0.70;0.70;;;21.20;99.90;;;;;;5122934;27;20114;-85
2023/08/26 10:27:16;;;;;;;0.70;0.70;;;21.60;99.90;;;;;;5119890;27;20415;-83
2023/08/26 10:29:43;;;;;;;0.60;0.60;;;21.70;99.90;;;;;;5117449;27;20054;-84
2023/08/26 10:32:19;;;;;;;0.70;0.70;;;21.60;99.90;;;;;;5121615;27;20042;-86
2023/08/26 10:34:53;;;;;;;0.70;0.70;;;20.90;99.90;;;;;;5133993;27;20035;-89
2023/08/26 10:37:23;;;;;;;0.70;0.70;;;20.70;99.90;;;;;;5120361;27;20529;-87
2023/08/26 10:39:48;;;;;;;0.60;0.60;;;20.40;99.90;;;;;;5121386;27;20153;-87
2023/08/26 10:42:18;;;;;;;0.60;0.60;;;20.30;99.90;;;;;;5124267;27;20118;-88
2023/08/26 10:44:55;;;;;;;0.77;0.77;;;20.20;99.90;;;;;;5107001;27;20399;-88
2023/08/26 10:47:38;;;;;;;0.60;0.60;;;20.00;99.90;;;;;;5121988;27;20050;-88
2023/08/26 10:50:18;;;;;;;0.50;0.50;;;20.10;99.90;;;;;;5126563;27;20506;-89
2023/08/26 10:52:44;;;;;;;0.70;0.70;;;20.10;99.90;;;;;;5120457;27;20077;-93
2023/08/26 10:55:23;;;;;;;0.60;0.60;;;20.90;99.90;;;;;;5106800;27;20089;-93
2023/08/26 10:58:11;;;;;;;0.60;0.60;;;21.40;99.90;;;;;;5128543;27;20042;-86
2023/08/26 11:00:42;;;;;;;0.70;0.70;;;21.50;99.90;;;;;;5102609;28;20457;-84
2023/08/26 11:03:09;;;;;;;0.70;0.70;;;21.50;99.90;;;;;;5122989;27;20508;-89
2023/08/26 11:05:44;;;;;;;0.70;0.70;;;21.60;99.90;;;;;;5127241;27;20043;-86
2023/08/26 11:08:11;;;;;;;0.70;0.70;;;21.50;99.90;;;;;;5119831;27;20082;-89
2023/08/26 11:10:41;;;;;;;0.70;0.70;;;22.10;99.90;;;;;;5121532;27;20526;-88
2023/08/26 11:13:11;;;;;;;0.60;0.60;;;22.10;99.90;;;;;;5117167;27;20047;-87
2023/08/26 11:15:43;;;;;;;0.60;0.60;;;21.80;99.90;;;;;;5119398;27;20050;-84
2023/08/26 11:18:10;;;;;;;0.55;0.55;;;22.00;99.90;;;;;;5119502;27;20079;-89
2023/08/26 11:20:37;;;;;;;0.50;0.50;;;22.40;99.90;;;;;;5109487;27;20045;-91
2023/08/26 11:23:04;;;;;;;0.50;0.50;;;22.40;99.90;;;;;;5126010;27;20118;-91
2023/08/26 11:25:30;;;;;;;0.60;0.60;;;22.30;99.90;;;;;;5131421;27;20047;-86
2023/08/26 11:28:02;;;;;;;0.50;0.50;;;22.20;99.90;;;;;;5122223;27;20047;-88
2023/08/26 11:30:28;;;;;;;0.50;0.50;;;22.80;99.90;;;;;;5129687;27;20056;-93
2023/08/26 11:32:54;;;;;;;0.50;0.50;;;23.10;99.90;;;;;;5110005;27;20042;-87
2023/08/26 11:35:23;;;;;;;0.50;0.50;;;23.10;99.90;;;;;;5107149;27;20049;-88
2023/08/26 11:37:49;;;;;;;0.50;0.50;;;22.70;99.90;;;;;;5103576;27;20050;-89
2023/08/26 11:40:15;;;;;;;0.50;0.50;;;23.00;99.90;;;;;;5116864;27;20043;-89
2023/08/26 11:42:45;;;;;;;0.50;0.50;;;23.10;99.90;;;;;;5126405;27;20064;-90
2023/08/26 11:45:16;;;;;;;0.45;0.45;;;23.50;99.90;;;;;;5105639;27;20043;-86
2023/08/26 11:47:42;;;;;;;0.55;0.55;;;23.40;99.90;;;;;;5103379;27;20046;-86
2023/08/26 11:50:09;;;;;;;0.50;0.50;;;22.80;99.90;;;;;;5120808;27;20118;-90
2023/08/26 11:52:36;;;;;;;0.50;0.50;;;22.20;99.90;;;;;;5123434;27;20570;-88
2023/08/26 11:55:07;;;;;;;0.50;0.50;;;22.80;99.90;;;;;;5127201;27;20649;-91
2023/08/26 11:57:40;;;;;;;0.50;0.50;;;22.80;99.90;;;;;;5099107;27;20056;-90
2023/08/26 12:00:16;;;;;;;;;;;22.80;99.90;;;;;;5104351;27;20498;-86
2023/08/26 12:02:46;;;;;;;0.50;0.50;;;23.30;99.90;;;;;;5129271;27;19926;-91
2023/08/26 12:05:12;;;;;;;0.45;0.45;;;23.30;99.90;;;;;;5108615;27;20050;-88
2023/08/26 12:07:44;;;;;;;0.50;0.50;;;23.10;99.90;;;;;;5119849;27;20404;-86
2023/08/26 12:10:13;;;;;;;0.50;0.50;;;23.40;99.90;;;;;;5126243;27;20590;-87
2023/08/26 12:12:39;;;;;;;0.50;0.50;;;23.20;99.90;;;;;;5129570;27;20640;-87
2023/08/26 12:15:06;;;;;;;0.50;0.50;;;23.20;99.90;;;;;;5114594;27;20454;-89
2023/08/26 12:17:41;;;;;;;0.60;0.60;;;23.20;99.90;;;;;;5128195;27;20046;-86
2023/08/26 12:20:30;;;;;;;0.60;0.60;;;23.40;99.90;;;;;;5123949;27;20134;-86
2023/08/26 12:23:00;;;;;;;0.60;0.60;;;23.40;99.90;;;;;;5123201;27;20129;-88
2023/08/26 12:25:34;;;;;;;0.68;0.68;;;23.20;99.90;;;;;;5127574;27;20093;-88
2023/08/26 12:28:26;;;;;;;0.60;0.60;;;23.20;99.90;;;;;;5105172;27;20531;-87
2023/08/26 12:30:52;;;;;;;0.60;0.60;;;23.40;99.90;;;;;;5122419;27;20048;-90
2023/08/26 12:33:18;;;;;;;0.50;0.50;;;23.50;99.90;;;;;;5099939;27;20066;-90
2023/08/26 12:35:45;;;;;;;0.50;0.50;;;23.40;99.90;;;;;;5098883;27;20713;-87
2023/08/26 12:38:11;;;;;;;0.50;0.50;;;23.60;99.90;;;;;;5104942;27;20138;-85
2023/08/26 12:40:39;;;;;;;0.40;0.40;;;23.50;99.90;;;;;;5120109;27;20150;-89
2023/08/26 12:43:05;;;;;;;0.30;0.30;;;23.60;99.90;;;;;;5117635;27;20444;-89
2023/08/26 12:45:31;;;;;;;0.50;0.50;;;23.60;99.90;;;;;;5108174;27;20144;-86
2023/08/26 12:47:57;;;;;;;0.40;0.40;;;23.60;99.90;;;;;;5108951;27;20043;-89